createdAt,value
2022-12-01T00:01:10.724Z,100747.73
2022-12-01T00:06:20.753Z,100751.01
2022-12-01T00:11:23.801Z,100753.58
2022-12-01T00:16:26.886Z,100749.81
2022-12-01T00:21:30.233Z,100747.05
2022-12-01T00:26:33.232Z,100742.95
2022-12-01T00:31:36.770Z,100739.54
2022-12-01T00:36:39.844Z,100744.35
2022-12-01T00:41:42.855Z,100748.78
2022-12-01T00:46:45.867Z,100743.29
2022-12-01T00:51:48.956Z,100741.05
2022-12-01T00:56:51.947Z,100739.16
2022-12-01T01:01:55.033Z,100742.27
2022-12-01T01:06:58.159Z,100735.27
2022-12-01T01:12:01.164Z,100738.70
2022-12-01T01:17:04.250Z,100736.47
2022-12-01T01:22:07.288Z,100731.98
2022-12-01T01:27:10.358Z,100732.65
2022-12-01T01:32:13.391Z,100731.25
2022-12-01T01:37:16.399Z,100733.31
2022-12-01T01:42:21.045Z,100726.12
2022-12-01T01:47:40.923Z,100722.02
2022-12-01T01:52:51.612Z,100726.31
2022-12-01T01:57:54.709Z,100725.64
2022-12-01T02:02:58.192Z,100723.58
2022-12-01T02:08:04.135Z,100723.06
2022-12-01T02:13:28.652Z,100725.14
2022-12-01T02:18:57.514Z,100721.23
2022-12-01T02:24:20.632Z,100727.77
2022-12-01T02:29:51.428Z,100724.16
2022-12-01T02:34:58.917Z,100719.86
2022-12-01T02:40:38.037Z,100714.56
2022-12-01T02:45:43.537Z,100718.69
2022-12-01T02:50:47.083Z,100716.98
2022-12-01T02:55:56.543Z,100715.27
2022-12-01T03:01:19.109Z,100710.13
2022-12-01T03:07:02.695Z,100708.77
2022-12-01T03:12:34.574Z,100710.30
2022-12-01T03:18:19.728Z,100713.91
2022-12-01T03:23:27.904Z,100706.59
2022-12-01T03:28:35.448Z,100709.30
2022-12-01T03:33:59.565Z,100703.31
2022-12-01T03:39:11.476Z,100699.72
2022-12-01T03:44:32.110Z,100699.21
2022-12-01T03:49:36.420Z,100695.63
2022-12-01T03:54:39.526Z,100692.02
2022-12-01T03:59:46.029Z,100692.02
2022-12-01T04:04:49.074Z,100692.04
2022-12-01T04:09:52.157Z,100692.20
2022-12-01T04:15:05.530Z,100696.30
2022-12-01T04:20:10.851Z,100691.16
2022-12-01T04:25:13.933Z,100687.76
2022-12-01T04:30:20.383Z,100687.58
2022-12-01T04:35:23.854Z,100695.80
2022-12-01T04:40:27.367Z,100696.14
2022-12-01T04:45:30.362Z,100688.61
2022-12-01T04:50:36.527Z,100692.20
2022-12-01T04:55:39.561Z,100690.83
2022-12-01T05:00:42.584Z,100690.48
2022-12-01T05:05:45.615Z,100691.36
2022-12-01T05:10:48.647Z,100694.43
2022-12-01T05:15:54.719Z,100687.08
2022-12-01T05:20:57.834Z,100693.91
2022-12-01T05:26:04.097Z,100697.85
2022-12-01T05:31:07.179Z,100692.54
2022-12-01T05:36:10.290Z,100695.48
2022-12-01T05:41:13.729Z,100695.98
2022-12-01T05:46:16.927Z,100696.30
2022-12-01T05:51:19.970Z,100692.36
2022-12-01T05:56:22.966Z,100688.92
2022-12-01T06:01:29.163Z,100689.30
2022-12-01T06:06:33.300Z,100693.41
2022-12-01T06:11:39.561Z,100698.04
2022-12-01T06:16:42.645Z,100697.67
2022-12-01T06:21:45.659Z,100689.64
2022-12-01T06:26:48.766Z,100701.95
2022-12-01T06:31:51.895Z,100706.23
2022-12-01T06:36:54.903Z,100709.50
2022-12-01T06:42:01.102Z,100710.69
2022-12-01T06:47:04.187Z,100712.73
2022-12-01T06:52:07.203Z,100704.52
2022-12-01T06:57:10.217Z,100704.71
2022-12-01T07:02:13.932Z,100702.65
2022-12-01T07:07:17.071Z,100703.50
2022-12-01T07:12:20.100Z,100706.06
2022-12-01T07:17:23.158Z,100704.85
2022-12-01T07:22:32.378Z,100705.87
2022-12-01T07:27:36.172Z,100705.88
2022-12-01T07:32:40.325Z,100710.67
2022-12-01T07:37:46.624Z,100711.73
2022-12-01T07:42:50.503Z,100714.10
2022-12-01T07:47:54.436Z,100715.63
2022-12-01T07:52:57.520Z,100718.02
2022-12-01T07:58:01.037Z,100715.31
2022-12-01T08:03:04.598Z,100717.69
2022-12-01T08:08:07.766Z,100717.01
2022-12-01T08:13:16.981Z,100717.52
2022-12-01T08:18:20.410Z,100719.38
2022-12-01T08:23:23.395Z,100718.19
2022-12-01T08:28:29.882Z,100716.16
2022-12-01T08:33:32.919Z,100722.31
2022-12-01T08:38:35.997Z,100720.62
2022-12-01T08:49:06.043Z,100722.47
2022-12-01T08:54:15.117Z,100721.95
2022-12-01T08:59:18.110Z,100728.79
2022-12-01T09:04:26.531Z,100726.04
2022-12-01T09:09:29.662Z,100722.63
2022-12-01T09:14:39.253Z,100722.80
2022-12-01T09:19:43.661Z,100719.04
2022-12-01T09:24:46.686Z,100718.33
2022-12-01T09:29:50.549Z,100715.25
2022-12-01T09:34:53.893Z,100712.70
2022-12-01T09:39:56.879Z,100712.04
2022-12-01T09:45:02.885Z,100711.52
2022-12-01T09:50:33.263Z,100710.16
2022-12-01T09:55:36.479Z,100702.81
2022-12-01T10:00:43.832Z,100701.45
2022-12-01T10:11:39.484Z,100697.00
2022-12-01T10:17:17.162Z,100691.88
2022-12-01T10:22:36.479Z,100686.05
2022-12-01T10:28:31.390Z,100681.61
2022-12-01T10:33:58.657Z,100683.65
2022-12-01T10:39:07.043Z,100681.95
2022-12-01T10:44:10.539Z,100679.20
2022-12-01T10:49:16.524Z,100681.24
2022-12-01T10:54:21.758Z,100675.60
2022-12-01T11:00:01.435Z,100674.23
2022-12-01T11:05:26.941Z,100668.10
2022-12-01T11:10:33.300Z,100665.38
2022-12-01T11:15:49.160Z,100666.75
2022-12-01T11:21:28.542Z,100671.02
2022-12-01T11:26:34.728Z,100667.60
2022-12-01T11:31:50.666Z,100667.78
2022-12-01T11:37:01.537Z,100663.84
2022-12-01T11:42:24.733Z,100661.97
2022-12-01T11:47:28.404Z,100664.87
2022-12-01T11:52:45.577Z,100662.14
2022-12-01T11:57:53.664Z,100659.75
2022-12-01T12:03:16.884Z,100659.08
2022-12-01T12:08:55.106Z,100656.51
2022-12-01T12:14:26.148Z,100652.40
2022-12-01T12:20:10.585Z,100647.27
2022-12-01T12:25:56.490Z,100642.66
2022-12-01T12:31:20.490Z,100642.65
2022-12-01T12:36:56.654Z,100638.73
2022-12-01T12:42:04.082Z,100638.73
2022-12-01T12:47:22.223Z,100633.26
2022-12-01T12:52:50.180Z,100635.30
2022-12-01T12:57:59.223Z,100642.14
2022-12-01T13:03:45.633Z,100648.45
2022-12-01T13:09:10.812Z,100650.84
2022-12-01T13:15:00.689Z,100650.32
2022-12-01T13:20:06.470Z,100652.70
2022-12-01T13:25:15.576Z,100648.94
2022-12-01T13:30:27.220Z,100649.64
2022-12-01T13:35:37.959Z,100650.66
2022-12-01T13:40:41.128Z,100651.67
2022-12-01T13:45:44.751Z,100653.55
2022-12-01T13:50:57.305Z,100653.40
2022-12-01T13:56:03.073Z,100649.48
2022-12-01T14:01:22.091Z,100648.95
2022-12-01T14:06:31.724Z,100649.63
2022-12-01T14:11:35.464Z,100650.80
2022-12-01T14:17:01.107Z,100648.92
2022-12-01T14:22:28.227Z,100648.59
2022-12-01T14:27:43.919Z,100648.95
2022-12-01T14:32:47.216Z,100649.09
2022-12-01T14:37:50.819Z,100644.14
2022-12-01T14:43:16.594Z,100640.92
2022-12-01T14:48:28.324Z,100637.16
2022-12-01T14:53:36.586Z,100636.98
2022-12-01T14:58:50.428Z,100634.09
2022-12-01T15:04:03.272Z,100635.27
2022-12-01T15:14:47.343Z,100637.98
2022-12-01T15:19:50.683Z,100639.54
2022-12-01T15:24:53.949Z,100642.80
2022-12-01T15:30:03.412Z,100638.33
2022-12-01T15:35:15.535Z,100635.92
2022-12-01T15:46:12.453Z,100633.69
2022-12-01T15:51:41.925Z,100637.13
2022-12-01T15:56:46.019Z,100638.16
2022-12-01T16:01:49.026Z,100637.48
2022-12-01T16:07:09.031Z,100635.41
2022-12-01T16:12:18.339Z,100641.73
2022-12-01T16:17:23.373Z,100645.48
2022-12-01T16:22:26.451Z,100646.69
2022-12-01T16:27:32.590Z,100645.50
2022-12-01T16:32:41.397Z,100645.33
2022-12-01T16:37:44.450Z,100643.77
2022-12-01T16:42:50.053Z,100647.36
2022-12-01T16:47:53.063Z,100648.88
2022-12-01T16:52:59.034Z,100653.52
2022-12-01T16:58:02.339Z,100655.58
2022-12-01T17:03:07.226Z,100655.56
2022-12-01T17:08:10.504Z,100652.48
2022-12-01T17:13:14.053Z,100650.41
2022-12-01T17:18:20.236Z,100650.40
2022-12-01T17:23:23.218Z,100646.82
2022-12-01T17:28:26.607Z,100645.81
2022-12-01T17:33:29.734Z,100642.39
2022-12-01T17:38:37.826Z,100638.13
2022-12-01T17:43:41.744Z,100634.18
2022-12-01T17:48:46.582Z,100631.45
2022-12-01T17:53:49.886Z,100630.41
2022-12-01T17:58:52.929Z,100629.59
2022-12-01T18:03:59.089Z,100630.97
2022-12-01T18:09:02.203Z,100630.11
2022-12-01T18:14:05.235Z,100633.00
2022-12-01T18:19:09.402Z,100631.27
2022-12-01T18:24:12.409Z,100630.56
2022-12-01T18:29:26.046Z,100629.23
2022-12-01T18:34:32.192Z,100632.46
2022-12-01T18:39:35.232Z,100632.31
2022-12-01T18:44:39.117Z,100634.71
2022-12-01T18:49:44.993Z,100636.23
2022-12-01T18:54:48.349Z,100635.69
2022-12-01T18:59:51.802Z,100631.09
2022-12-01T19:04:54.800Z,100630.09
2022-12-01T19:09:57.790Z,100629.89
2022-12-01T19:15:00.771Z,100635.16
2022-12-01T19:20:05.277Z,100638.72
2022-12-01T19:25:11.448Z,100642.30
2022-12-01T19:30:14.577Z,100636.17
2022-12-01T19:35:17.905Z,100633.46
2022-12-01T19:40:23.845Z,100632.64
2022-12-01T19:45:28.943Z,100634.86
2022-12-01T19:50:36.133Z,100633.84
2022-12-01T19:55:39.278Z,100630.07
2022-12-01T20:00:42.432Z,100635.52
2022-12-01T20:05:45.479Z,100635.54
2022-12-01T20:10:48.946Z,100632.30
2022-12-01T20:15:51.914Z,100636.02
2022-12-01T20:21:21.582Z,100630.05
2022-12-01T20:26:30.796Z,100635.69
2022-12-01T20:31:34.978Z,100639.27
2022-12-01T20:36:38.819Z,100636.84
2022-12-01T20:41:43.943Z,100635.61
2022-12-01T20:46:47.625Z,100629.85
2022-12-01T20:51:50.813Z,100636.71
2022-12-01T20:56:53.847Z,100631.25
2022-12-01T21:01:56.978Z,100629.89
2022-12-01T21:07:00.449Z,100631.56
2022-12-01T21:12:34.647Z,100626.54
2022-12-01T21:17:53.148Z,100626.68
2022-12-01T21:23:05.742Z,100627.19
2022-12-01T21:28:21.663Z,100622.92
2022-12-01T21:33:35.538Z,100624.58
2022-12-01T21:38:38.527Z,100623.16
2022-12-01T21:43:41.854Z,100624.47
2022-12-01T21:48:48.099Z,100619.30
2022-12-01T21:53:56.392Z,100619.94
2022-12-01T21:59:13.664Z,100617.71
2022-12-01T22:04:23.731Z,100620.31
2022-12-01T22:09:32.967Z,100621.86
2022-12-01T22:14:36.798Z,100621.86
2022-12-01T22:19:44.977Z,100623.05
2022-12-01T22:24:52.217Z,100623.17
2022-12-01T22:30:07.640Z,100616.31
2022-12-01T22:35:27.547Z,100614.98
2022-12-01T22:40:40.800Z,100611.44
2022-12-01T22:46:21.609Z,100612.16
2022-12-01T22:51:37.750Z,100612.52
2022-12-01T22:56:42.650Z,100611.15
2022-12-01T23:01:58.746Z,100607.40
2022-12-01T23:07:29.608Z,100607.86
2022-12-01T23:12:35.269Z,100602.91
2022-12-01T23:17:39.139Z,100603.46
2022-12-01T23:22:41.979Z,100600.23
2022-12-01T23:27:48.908Z,100594.06
2022-12-01T23:33:09.712Z,100600.15
2022-12-01T23:38:20.550Z,100602.36
2022-12-01T23:43:28.096Z,100602.84
2022-12-01T23:48:42.978Z,100600.61
2022-12-01T23:53:47.025Z,100607.42
2022-12-01T23:58:51.750Z,100607.44
